createdAt,value
2022-12-31T00:00:15.155Z,77.50
2022-12-31T00:02:43.073Z,77.70
2022-12-31T00:05:10.747Z,75.01
2022-12-31T00:10:04.916Z,76.63
2022-12-31T00:12:32.445Z,77.82
2022-12-31T00:14:59.807Z,76.39
2022-12-31T00:17:27.507Z,79.61
2022-12-31T00:19:54.860Z,75.80
2022-12-31T00:22:22.182Z,81.17
2022-12-31T00:24:49.835Z,81.95
2022-12-31T00:27:17.234Z,78.12
2022-12-31T00:29:44.585Z,77.25
2022-12-31T00:32:12.309Z,78.06
2022-12-31T00:34:39.663Z,77.78
2022-12-31T00:37:07.014Z,79.23
2022-12-31T00:39:34.832Z,80.86
2022-12-31T00:42:02.628Z,79.57
2022-12-31T00:44:29.996Z,79.16
2022-12-31T00:46:57.630Z,79.35
2022-12-31T00:49:25.122Z,78.72
2022-12-31T00:51:52.462Z,80.87
2022-12-31T00:54:20.141Z,78.03
2022-12-31T00:56:47.497Z,77.58
2022-12-31T00:59:14.852Z,76.13
2022-12-31T01:01:42.755Z,76.03
2022-12-31T01:04:12.704Z,76.27
2022-12-31T01:06:40.327Z,79.69
2022-12-31T01:09:08.249Z,79.97
2022-12-31T01:11:35.656Z,79.72
2022-12-31T01:14:05.226Z,78.62
2022-12-31T01:16:47.606Z,79.14
2022-12-31T01:19:26.084Z,78.26
2022-12-31T01:21:53.794Z,76.00
2022-12-31T01:24:21.237Z,75.36
2022-12-31T01:26:51.214Z,74.88
2022-12-31T01:29:18.894Z,74.87
2022-12-31T01:31:46.253Z,77.44
2022-12-31T01:34:13.708Z,74.33
2022-12-31T01:36:41.297Z,72.40
2022-12-31T01:39:08.872Z,73.34
2022-12-31T01:41:41.092Z,74.01
2022-12-31T01:44:11.652Z,77.72
2022-12-31T01:46:45.657Z,74.81
2022-12-31T01:49:35.213Z,74.14
2022-12-31T01:52:30.234Z,75.28
2022-12-31T01:55:25.669Z,75.03
2022-12-31T01:57:55.123Z,73.18
2022-12-31T02:00:22.793Z,78.23
2022-12-31T02:02:50.522Z,75.60
2022-12-31T02:05:32.016Z,75.27
2022-12-31T02:07:59.719Z,76.51
2022-12-31T02:10:27.062Z,76.25
2022-12-31T02:12:54.389Z,80.72
2022-12-31T02:15:23.254Z,75.90
2022-12-31T02:18:00.699Z,77.89
2022-12-31T02:20:40.527Z,77.72
2022-12-31T02:23:19.132Z,75.34
2022-12-31T02:25:55.874Z,75.15
2022-12-31T02:29:04.439Z,75.90
2022-12-31T02:31:35.010Z,75.87
2022-12-31T02:34:08.046Z,76.12
2022-12-31T02:36:37.443Z,83.12
2022-12-31T02:39:04.896Z,80.33
2022-12-31T02:41:50.449Z,81.03
2022-12-31T02:44:29.768Z,79.69
2022-12-31T02:47:09.214Z,81.61
2022-12-31T02:49:42.114Z,79.04
2022-12-31T02:52:18.140Z,78.02
2022-12-31T02:54:59.131Z,75.79
2022-12-31T02:57:35.394Z,75.43
2022-12-31T03:00:26.820Z,77.44
2022-12-31T03:02:54.393Z,77.74
2022-12-31T03:05:24.270Z,77.09
2022-12-31T03:07:51.594Z,80.04
2022-12-31T03:10:19.139Z,80.16
2022-12-31T03:12:49.610Z,81.12
2022-12-31T03:15:25.805Z,79.62
2022-12-31T03:18:06.696Z,75.36
2022-12-31T03:21:04.020Z,74.23
2022-12-31T03:23:40.198Z,74.68
2022-12-31T03:26:12.490Z,77.32
2022-12-31T03:28:41.474Z,76.42
2022-12-31T03:31:09.058Z,77.29
2022-12-31T03:33:38.270Z,77.91
2022-12-31T03:36:10.977Z,76.42
2022-12-31T03:38:38.397Z,77.60
2022-12-31T03:41:06.024Z,77.52
2022-12-31T03:43:33.513Z,75.75
2022-12-31T03:46:01.702Z,74.59
2022-12-31T03:48:29.958Z,75.27
2022-12-31T03:50:57.501Z,76.90
2022-12-31T03:53:24.834Z,78.02
2022-12-31T03:55:53.140Z,77.96
2022-12-31T03:58:21.124Z,78.66
2022-12-31T04:00:48.569Z,78.01
2022-12-31T04:03:16.348Z,76.26
2022-12-31T04:05:43.831Z,74.48
2022-12-31T04:08:11.204Z,78.96
2022-12-31T04:10:38.826Z,78.74
2022-12-31T04:13:06.168Z,77.39
2022-12-31T04:15:33.521Z,77.07
2022-12-31T04:18:01.160Z,76.20
2022-12-31T04:20:28.552Z,77.83
2022-12-31T04:22:55.876Z,75.27
2022-12-31T04:25:23.465Z,73.77
2022-12-31T04:27:51.578Z,75.44
2022-12-31T04:30:18.948Z,74.14
2022-12-31T04:32:46.552Z,73.83
2022-12-31T04:35:13.919Z,74.45
2022-12-31T04:37:41.272Z,78.33
2022-12-31T04:40:09.208Z,78.14
2022-12-31T04:42:36.753Z,78.90
2022-12-31T04:45:04.549Z,78.79
2022-12-31T04:47:32.303Z,76.96
2022-12-31T04:49:59.765Z,77.18
2022-12-31T04:52:27.997Z,75.52
2022-12-31T04:54:55.631Z,73.66
2022-12-31T04:57:23.048Z,77.04
2022-12-31T04:59:50.391Z,75.49
2022-12-31T05:02:18.215Z,75.75
2022-12-31T05:04:45.696Z,75.95
2022-12-31T05:07:13.033Z,74.21
2022-12-31T05:09:40.701Z,76.59
2022-12-31T05:12:08.127Z,77.75
2022-12-31T05:14:35.552Z,79.76
2022-12-31T05:17:03.233Z,80.30
2022-12-31T05:19:30.639Z,76.69
2022-12-31T05:22:27.445Z,75.20
2022-12-31T05:24:55.199Z,74.17
2022-12-31T05:27:22.606Z,76.45
2022-12-31T05:29:50.053Z,74.87
2022-12-31T05:32:17.746Z,75.16
2022-12-31T05:34:45.122Z,75.08
2022-12-31T05:37:12.473Z,74.53
2022-12-31T05:39:40.199Z,73.75
2022-12-31T05:42:07.528Z,73.71
2022-12-31T05:44:34.939Z,73.23
2022-12-31T05:47:02.589Z,73.15
2022-12-31T05:49:30.069Z,72.49
2022-12-31T05:51:57.407Z,72.39
2022-12-31T05:54:25.050Z,75.56
2022-12-31T05:56:52.418Z,74.31
2022-12-31T05:59:19.807Z,76.40
2022-12-31T06:01:47.758Z,74.21
2022-12-31T06:04:15.472Z,72.77
2022-12-31T06:06:42.804Z,72.52
2022-12-31T06:09:11.582Z,72.48
2022-12-31T06:11:39.188Z,72.24
2022-12-31T06:14:06.512Z,77.19
2022-12-31T06:16:33.876Z,75.17
2022-12-31T06:19:02.384Z,74.22
2022-12-31T06:21:29.923Z,73.89
2022-12-31T06:23:58.730Z,76.76
2022-12-31T06:26:26.914Z,74.36
2022-12-31T06:28:54.256Z,73.28
2022-12-31T06:31:21.761Z,72.13
2022-12-31T06:33:49.418Z,72.27
2022-12-31T06:36:16.913Z,72.19
2022-12-31T06:38:44.411Z,72.94
2022-12-31T06:41:13.305Z,73.61
2022-12-31T06:43:40.658Z,73.83
2022-12-31T06:46:09.791Z,72.01
2022-12-31T06:48:37.626Z,73.11
2022-12-31T06:51:15.013Z,74.68
2022-12-31T06:53:45.704Z,74.46
2022-12-31T06:56:17.969Z,73.63
2022-12-31T06:58:46.268Z,72.60
2022-12-31T07:01:51.404Z,72.35
2022-12-31T07:04:43.660Z,71.95
2022-12-31T07:07:24.973Z,72.92
2022-12-31T07:09:57.693Z,75.08
2022-12-31T07:12:48.567Z,74.48
2022-12-31T07:15:41.544Z,72.96
2022-12-31T07:18:37.542Z,72.11
2022-12-31T07:21:08.619Z,76.71
2022-12-31T07:23:36.075Z,73.64
2022-12-31T07:26:12.319Z,72.08
2022-12-31T07:28:51.334Z,72.99
2022-12-31T07:31:46.131Z,71.95
2022-12-31T07:34:30.106Z,72.13
2022-12-31T07:37:07.228Z,72.00
2022-12-31T07:39:40.305Z,70.68
2022-12-31T07:42:16.891Z,71.17
2022-12-31T07:45:19.297Z,70.50
2022-12-31T07:47:46.945Z,69.74
2022-12-31T07:50:15.791Z,70.48
2022-12-31T07:52:43.843Z,72.66
2022-12-31T07:55:11.384Z,73.21
2022-12-31T07:57:42.829Z,71.44
2022-12-31T08:00:14.058Z,70.46
2022-12-31T08:03:02.998Z,70.12
2022-12-31T08:05:37.034Z,70.00
2022-12-31T08:08:07.153Z,70.07
2022-12-31T08:11:06.261Z,69.67
2022-12-31T08:13:33.752Z,69.55
2022-12-31T08:16:01.989Z,69.83
2022-12-31T08:18:29.525Z,69.37
2022-12-31T08:21:09.472Z,70.47
2022-12-31T08:23:43.916Z,70.03
2022-12-31T08:26:45.821Z,70.04
2022-12-31T08:29:30.893Z,71.84
2022-12-31T08:32:17.474Z,72.95
2022-12-31T08:35:11.375Z,70.59
2022-12-31T08:37:50.899Z,72.92
2022-12-31T08:40:26.082Z,71.38
2022-12-31T08:43:12.583Z,73.08
2022-12-31T08:45:47.856Z,72.02
2022-12-31T08:48:38.869Z,70.76
2022-12-31T08:51:07.159Z,73.71
2022-12-31T08:53:35.091Z,72.43
2022-12-31T08:56:07.778Z,71.62
2022-12-31T08:58:50.538Z,71.11
2022-12-31T09:01:20.668Z,70.72
2022-12-31T09:04:01.382Z,71.24
2022-12-31T09:06:33.941Z,70.58
2022-12-31T09:09:38.283Z,69.52
2022-12-31T09:12:20.896Z,69.52
2022-12-31T09:14:54.922Z,68.33
2022-12-31T09:17:44.945Z,69.27
2022-12-31T09:20:18.991Z,73.56
2022-12-31T09:22:46.407Z,72.28
2022-12-31T09:25:15.751Z,69.53
2022-12-31T09:27:58.376Z,69.97
2022-12-31T09:30:26.439Z,68.97
2022-12-31T09:33:01.423Z,69.95
2022-12-31T09:35:51.432Z,69.12
2022-12-31T09:38:46.176Z,68.96
2022-12-31T09:41:15.620Z,69.64
2022-12-31T09:44:21.285Z,69.53
2022-12-31T09:47:07.587Z,69.64
2022-12-31T09:49:59.302Z,68.17
2022-12-31T09:52:38.845Z,68.41
2022-12-31T09:55:12.125Z,67.24
2022-12-31T09:57:41.537Z,67.23
2022-12-31T10:00:16.462Z,66.81
2022-12-31T10:02:55.638Z,66.61
2022-12-31T10:05:31.139Z,65.58
2022-12-31T10:08:07.955Z,65.96
2022-12-31T10:10:55.384Z,65.29
2022-12-31T10:13:40.815Z,66.07
2022-12-31T10:16:25.402Z,65.53
2022-12-31T10:19:24.108Z,65.40
2022-12-31T10:22:19.080Z,65.40
2022-12-31T10:24:51.473Z,65.02
2022-12-31T10:27:39.761Z,64.89
2022-12-31T10:30:18.767Z,65.97
2022-12-31T10:33:08.103Z,64.65
2022-12-31T10:35:53.944Z,64.67
2022-12-31T10:38:49.587Z,63.94
2022-12-31T10:41:35.427Z,63.38
2022-12-31T10:44:17.678Z,63.73
2022-12-31T10:46:58.523Z,63.38
2022-12-31T10:50:03.585Z,63.53
2022-12-31T10:52:53.138Z,63.62
2022-12-31T10:55:24.909Z,64.38
2022-12-31T10:58:04.374Z,64.23
2022-12-31T11:00:41.396Z,64.34
2022-12-31T11:03:43.784Z,63.62
2022-12-31T11:06:23.232Z,63.55
2022-12-31T11:09:18.815Z,64.91
2022-12-31T11:12:10.737Z,63.98
2022-12-31T11:14:53.137Z,64.08
2022-12-31T11:17:52.982Z,66.19
2022-12-31T11:20:28.520Z,65.37
2022-12-31T11:23:23.815Z,65.49
2022-12-31T11:26:02.849Z,65.15
2022-12-31T11:28:40.791Z,64.81
2022-12-31T11:31:32.793Z,65.12
2022-12-31T11:34:38.552Z,63.70
2022-12-31T11:37:28.371Z,63.76
2022-12-31T11:40:17.748Z,66.66
2022-12-31T11:43:19.847Z,64.77
2022-12-31T11:45:59.061Z,64.48
2022-12-31T11:48:37.407Z,65.31
2022-12-31T11:51:13.697Z,64.69
2022-12-31T11:54:03.716Z,64.12
2022-12-31T11:56:35.696Z,63.55
2022-12-31T11:59:12.097Z,64.01
2022-12-31T12:01:50.842Z,63.50
2022-12-31T12:04:18.512Z,63.43
2022-12-31T12:06:46.067Z,63.40
2022-12-31T12:09:16.876Z,63.34
2022-12-31T12:11:44.573Z,63.13
2022-12-31T12:14:35.397Z,63.04
2022-12-31T12:17:05.514Z,62.26
2022-12-31T12:19:34.311Z,62.12
2022-12-31T12:22:34.269Z,62.14
2022-12-31T12:25:15.946Z,62.33
2022-12-31T12:27:43.639Z,62.22
2022-12-31T12:30:26.835Z,62.50
2022-12-31T12:32:58.724Z,62.00
2022-12-31T12:35:31.685Z,62.45
2022-12-31T12:38:20.432Z,63.23
2022-12-31T12:40:58.846Z,62.67
2022-12-31T12:43:31.131Z,62.73
2022-12-31T12:46:04.142Z,62.58
2022-12-31T12:48:39.495Z,62.88
2022-12-31T12:51:19.235Z,63.12
2022-12-31T12:54:04.271Z,61.94
2022-12-31T12:56:36.400Z,64.20
2022-12-31T12:59:19.454Z,63.25
2022-12-31T13:02:22.188Z,64.05
2022-12-31T13:04:56.582Z,64.08
2022-12-31T13:07:33.400Z,65.07
2022-12-31T13:10:00.618Z,64.45
2022-12-31T13:13:13.856Z,66.39
2022-12-31T13:15:31.855Z,68.52
2022-12-31T13:18:06.129Z,66.32
2022-12-31T13:20:40.112Z,66.73
2022-12-31T13:23:25.233Z,68.31
2022-12-31T13:26:10.670Z,67.54
2022-12-31T13:28:42.340Z,66.25
2022-12-31T13:31:12.664Z,64.88
2022-12-31T13:33:45.387Z,64.86
2022-12-31T13:36:20.608Z,65.49
2022-12-31T13:38:58.897Z,65.37
2022-12-31T13:41:32.878Z,64.68
2022-12-31T13:44:20.614Z,65.14
2022-12-31T13:46:56.145Z,65.37
2022-12-31T13:49:27.227Z,65.78
2022-12-31T13:52:16.058Z,68.75
2022-12-31T13:54:47.701Z,67.41
2022-12-31T13:57:23.856Z,67.65
2022-12-31T13:59:54.970Z,66.29
2022-12-31T14:02:31.474Z,65.55
2022-12-31T14:05:31.516Z,66.27
2022-12-31T14:08:00.527Z,68.01
2022-12-31T14:10:37.227Z,67.00
2022-12-31T14:13:34.781Z,66.41
2022-12-31T14:16:08.387Z,66.91
2022-12-31T14:18:47.164Z,65.99
2022-12-31T14:21:23.143Z,65.96
2022-12-31T14:23:55.937Z,66.06
2022-12-31T14:26:27.969Z,66.70
2022-12-31T14:29:10.299Z,65.80
2022-12-31T14:31:53.967Z,65.68
2022-12-31T14:34:49.803Z,66.31
2022-12-31T14:37:27.893Z,65.21
2022-12-31T14:40:16.942Z,67.07
2022-12-31T14:43:10.325Z,67.15
2022-12-31T14:46:09.815Z,66.29
2022-12-31T14:48:46.465Z,66.24
2022-12-31T14:51:13.861Z,66.09
2022-12-31T14:53:51.359Z,66.01
2022-12-31T14:56:30.669Z,66.15
2022-12-31T14:59:01.676Z,67.26
2022-12-31T15:01:29.335Z,67.10
2022-12-31T15:03:58.183Z,66.62
2022-12-31T15:06:41.062Z,66.54
2022-12-31T15:09:11.316Z,65.76
2022-12-31T15:12:01.023Z,66.44
2022-12-31T15:14:54.367Z,66.25
2022-12-31T15:17:34.615Z,66.47
2022-12-31T15:20:27.574Z,66.31
2022-12-31T15:22:55.267Z,66.23
2022-12-31T15:25:41.058Z,66.34
2022-12-31T15:28:26.961Z,65.88
2022-12-31T15:30:54.853Z,65.94
2022-12-31T15:33:39.219Z,65.93
2022-12-31T15:36:17.897Z,65.51
2022-12-31T15:38:45.646Z,66.23
2022-12-31T15:41:19.941Z,65.95
2022-12-31T15:43:57.155Z,65.69
2022-12-31T15:46:33.776Z,65.49
2022-12-31T15:49:11.739Z,65.41
2022-12-31T15:51:56.086Z,65.57
2022-12-31T15:54:35.686Z,65.90
2022-12-31T15:57:07.290Z,66.03
2022-12-31T15:59:38.343Z,65.78
2022-12-31T16:02:20.164Z,65.98
2022-12-31T16:04:47.927Z,66.62
2022-12-31T16:07:15.392Z,66.34
2022-12-31T16:09:42.823Z,66.52
2022-12-31T16:12:12.589Z,66.47
2022-12-31T16:14:42.588Z,66.52
2022-12-31T16:17:28.438Z,66.61
2022-12-31T16:19:56.025Z,66.52
2022-12-31T16:22:37.658Z,66.35
2022-12-31T16:25:34.253Z,65.97
2022-12-31T16:27:53.511Z,66.09
2022-12-31T16:30:35.670Z,66.41
2022-12-31T16:33:06.163Z,66.28
2022-12-31T16:35:34.979Z,66.48
2022-12-31T16:38:03.638Z,66.80
2022-12-31T16:40:31.149Z,66.28
2022-12-31T16:42:58.515Z,67.35
2022-12-31T16:45:36.382Z,67.18
2022-12-31T16:48:18.256Z,67.67
2022-12-31T16:50:53.355Z,67.21
2022-12-31T16:53:23.884Z,67.43
2022-12-31T16:56:01.481Z,67.53
2022-12-31T16:58:30.794Z,67.74
2022-12-31T17:01:23.741Z,67.55
2022-12-31T17:03:52.901Z,67.74
2022-12-31T17:06:20.958Z,67.50
2022-12-31T17:09:00.834Z,68.39
2022-12-31T17:11:35.006Z,69.23
2022-12-31T17:14:08.315Z,71.88
2022-12-31T17:16:37.771Z,71.08
2022-12-31T17:19:05.129Z,69.36
2022-12-31T17:21:32.560Z,69.74
2022-12-31T17:24:06.617Z,69.51
2022-12-31T17:26:35.047Z,70.41
2022-12-31T17:29:03.839Z,69.80
2022-12-31T17:31:38.182Z,69.47
2022-12-31T17:34:13.151Z,70.19
2022-12-31T17:37:14.464Z,69.37
2022-12-31T17:39:53.115Z,69.75
2022-12-31T17:42:38.645Z,69.68
2022-12-31T17:45:08.366Z,69.00
2022-12-31T17:47:40.194Z,69.02
2022-12-31T17:50:19.214Z,69.22
2022-12-31T17:52:46.749Z,69.13
2022-12-31T17:55:14.552Z,68.93
2022-12-31T17:57:49.650Z,68.49
2022-12-31T18:00:22.370Z,68.73
2022-12-31T18:02:50.272Z,68.67
2022-12-31T18:05:22.107Z,69.43
2022-12-31T18:07:50.209Z,69.71
2022-12-31T18:10:19.261Z,69.44
2022-12-31T18:12:47.123Z,69.18
2022-12-31T18:15:16.115Z,69.27
2022-12-31T18:17:43.543Z,69.54
2022-12-31T18:20:11.063Z,69.32
2022-12-31T18:22:39.195Z,69.34
2022-12-31T18:25:07.481Z,69.42
2022-12-31T18:27:34.970Z,69.61
2022-12-31T18:30:05.648Z,69.68
2022-12-31T18:32:35.415Z,70.62
2022-12-31T18:35:03.279Z,71.18
2022-12-31T18:37:30.651Z,71.31
2022-12-31T18:39:58.005Z,70.97
2022-12-31T18:42:26.231Z,71.52
2022-12-31T18:44:53.587Z,71.21
2022-12-31T18:47:23.238Z,70.86
2022-12-31T18:49:50.985Z,70.82
2022-12-31T18:52:19.827Z,70.28
2022-12-31T18:54:47.240Z,70.41
2022-12-31T18:57:15.381Z,70.08
2022-12-31T18:59:42.750Z,69.67
2022-12-31T19:02:18.627Z,69.99
2022-12-31T19:04:46.976Z,69.64
2022-12-31T19:07:14.402Z,70.51
2022-12-31T19:09:46.283Z,70.61
2022-12-31T19:12:14.774Z,70.46
2022-12-31T19:14:42.172Z,70.25
2022-12-31T19:19:36.040Z,70.06
2022-12-31T19:22:03.434Z,69.59
2022-12-31T19:24:30.889Z,69.70
2022-12-31T19:26:58.628Z,69.17
2022-12-31T19:29:27.074Z,70.89
2022-12-31T19:31:54.624Z,70.18
2022-12-31T19:34:22.332Z,70.44
2022-12-31T19:36:49.696Z,70.68
2022-12-31T19:39:18.436Z,70.30
2022-12-31T19:41:47.521Z,70.84
2022-12-31T19:44:17.269Z,70.96
2022-12-31T19:46:44.823Z,71.58
2022-12-31T19:49:13.237Z,71.24
2022-12-31T19:51:40.888Z,70.94
2022-12-31T19:54:08.388Z,70.92
2022-12-31T19:56:36.041Z,70.53
2022-12-31T19:59:06.970Z,70.50
2022-12-31T20:01:34.521Z,70.87
2022-12-31T20:04:02.257Z,70.68
2022-12-31T20:06:29.795Z,71.00
2022-12-31T20:08:57.196Z,70.59
2022-12-31T20:11:24.897Z,70.68
2022-12-31T20:13:53.581Z,70.58
2022-12-31T20:16:24.466Z,70.34
2022-12-31T20:18:52.321Z,70.28
2022-12-31T20:21:24.309Z,70.36
2022-12-31T20:23:52.587Z,70.25
2022-12-31T20:26:20.210Z,70.09
2022-12-31T20:28:47.588Z,70.01
2022-12-31T20:31:16.938Z,69.65
2022-12-31T20:33:44.731Z,69.49
2022-12-31T20:36:13.431Z,69.41
2022-12-31T20:38:41.154Z,69.18
2022-12-31T20:41:13.220Z,69.06
2022-12-31T20:43:40.876Z,69.35
2022-12-31T20:46:14.959Z,69.32
2022-12-31T20:48:45.761Z,69.33
2022-12-31T20:51:14.075Z,69.00
2022-12-31T20:53:46.366Z,68.90
2022-12-31T20:56:14.023Z,68.92
2022-12-31T20:58:41.573Z,68.71
2022-12-31T21:01:09.447Z,69.06
2022-12-31T21:04:04.145Z,68.64
2022-12-31T21:06:25.514Z,69.75
2022-12-31T21:08:54.827Z,69.64
2022-12-31T21:11:40.795Z,69.93
2022-12-31T21:14:08.404Z,69.98
2022-12-31T21:16:35.847Z,70.32
2022-12-31T21:19:03.376Z,71.22
2022-12-31T21:21:31.087Z,71.41
2022-12-31T21:23:58.499Z,70.52
2022-12-31T21:26:25.859Z,70.22
2022-12-31T21:28:53.735Z,70.22
2022-12-31T21:31:21.135Z,70.38
2022-12-31T21:33:48.679Z,70.39
2022-12-31T21:36:16.320Z,71.38
2022-12-31T21:38:44.160Z,71.10
2022-12-31T21:41:33.638Z,70.70
2022-12-31T21:44:02.224Z,70.52
2022-12-31T21:46:29.812Z,70.70
2022-12-31T21:48:57.878Z,70.83
2022-12-31T21:51:25.650Z,70.41
2022-12-31T21:53:53.032Z,70.49
2022-12-31T21:56:21.328Z,70.62
2022-12-31T21:59:14.604Z,70.39
2022-12-31T22:02:02.393Z,70.75
2022-12-31T22:07:17.568Z,70.33
2022-12-31T22:09:45.294Z,70.80
2022-12-31T22:12:12.630Z,70.39
2022-12-31T22:14:40.026Z,70.33
2022-12-31T22:17:27.752Z,70.45
2022-12-31T22:22:42.730Z,70.34
2022-12-31T22:25:10.098Z,69.96
2022-12-31T22:27:37.445Z,70.43
2022-12-31T22:30:05.722Z,70.12
2022-12-31T22:32:33.146Z,70.35
2022-12-31T22:35:00.471Z,70.68
2022-12-31T22:37:55.796Z,71.03
2022-12-31T22:40:15.814Z,70.34
2022-12-31T22:42:43.473Z,70.32
2022-12-31T22:45:11.170Z,70.43
2022-12-31T22:47:38.495Z,70.13
2022-12-31T22:50:06.774Z,70.08
2022-12-31T22:52:34.233Z,70.63
2022-12-31T22:55:01.600Z,70.30
2022-12-31T22:57:29.240Z,70.28
2022-12-31T22:59:56.736Z,69.97
2022-12-31T23:02:24.120Z,70.35
2022-12-31T23:04:51.767Z,70.23
2022-12-31T23:07:19.113Z,69.77
2022-12-31T23:10:05.376Z,70.04
2022-12-31T23:12:32.845Z,70.06
2022-12-31T23:15:19.310Z,70.38
2022-12-31T23:18:05.875Z,70.35
2022-12-31T23:20:51.824Z,70.97
2022-12-31T23:23:19.550Z,71.64
2022-12-31T23:25:48.598Z,71.25
2022-12-31T23:28:18.101Z,71.14
2022-12-31T23:30:45.876Z,70.87
2022-12-31T23:33:15.485Z,70.70
2022-12-31T23:35:43.007Z,70.79
2022-12-31T23:38:10.652Z,70.81
2022-12-31T23:40:38.032Z,70.84
2022-12-31T23:43:06.587Z,71.39
2022-12-31T23:45:34.612Z,71.80
2022-12-31T23:48:02.266Z,71.02
2022-12-31T23:50:29.620Z,70.84
2022-12-31T23:52:57.254Z,70.74
2022-12-31T23:55:24.670Z,70.61
2022-12-31T23:57:52.014Z,70.98
